KTBN/TBN METAR and TAF weather

Enter ICAO airport designator
Station Type Date Time Source
KTBN METAR 2019/08/26 06:56 UTC NOAA

KTBN 260656Z AUTO 18007KT 10SM OVC009 22/21 A2981 RMK AO2 SLP087 T02240208


Station Type Date Time Source
KTBN Decoded METAR 2019/08/26 06:56 UTC NOAA

Station name not available
Aug 26, 2019 - 02:56 AM EDT / 2019.08.26 0656 UTC
Wind: from the S (180 degrees) at 8 MPH (7 KT):0
Visibility: 10 mile(s):0
Sky conditions: overcast
Temperature: 72.3 F (22.4 C)
Dew Point: 69.4 F (20.8 C)
Relative Humidity: 90%
Pressure (altimeter): 29.81 in. Hg (1009 hPa)
ob: KTBN 260656Z AUTO 18007KT 10SM OVC009 22/21 A2981 RMK AO2 SLP087 T02240208
cycle: 7

Station Type Date Time Source
KTBN TAF UTC NOAA

Error!

Example: see airport list